Time;durP1;ratioP1;P1;durP2;ratioP2;P2;SDS_P1;SDS_P2;PMS_P1;PMS_P2;Temp;Humidity;BMP_temperature;BMP_pressure;BME280_temperature;BME280_humidity;BME280_pressure;Samples;Min_cycle;Max_cycle;Signal;HPM_P1;HPM_P2
2022/12/10 00:01:50;;;;;;;12.15;7.78;;;2.40;99.90;;;;;;5004124;28;20477;-68
2022/12/10 00:04:16;;;;;;;17.30;9.63;;;2.40;99.90;;;;;;4997560;28;20040;-68
2022/12/10 00:06:42;;;;;;;16.92;9.68;;;2.10;99.90;;;;;;4997955;28;20035;-69
2022/12/10 00:09:15;;;;;;;15.60;9.23;;;2.10;99.90;;;;;;5002333;28;20030;-68
2022/12/10 00:11:42;;;;;;;9.05;6.20;;;2.10;99.90;;;;;;5004982;28;20034;-68
2022/12/10 00:14:09;;;;;;;12.35;6.50;;;2.40;99.90;;;;;;4988607;28;20129;-68
2022/12/10 00:16:35;;;;;;;9.43;6.20;;;2.70;99.90;;;;;;4998155;28;20034;-68
2022/12/10 00:19:01;;;;;;;11.00;6.30;;;2.80;99.90;;;;;;5005395;28;20033;-68
2022/12/10 00:21:29;;;;;;;10.35;6.35;;;2.60;99.90;;;;;;4994713;28;20041;-68
2022/12/10 00:23:56;;;;;;;8.88;6.07;;;2.60;99.90;;;;;;4999107;28;20540;-68
2022/12/10 00:26:25;;;;;;;12.50;8.60;;;2.60;99.90;;;;;;4990954;28;20033;-68
2022/12/10 00:28:51;;;;;;;10.43;6.43;;;2.50;99.90;;;;;;5002604;28;20033;-68
2022/12/10 00:31:26;;;;;;;11.27;6.18;;;2.50;99.90;;;;;;5004241;28;20030;-68
2022/12/10 00:33:55;;;;;;;;;;;2.70;99.90;;;;;;5006729;28;20081;-68
2022/12/10 00:36:25;;;;;;;11.68;7.55;;;2.60;99.90;;;;;;5004974;28;19914;-68
2022/12/10 00:38:51;;;;;;;11.82;7.97;;;2.60;99.90;;;;;;4997807;28;20038;-68
2022/12/10 00:41:17;;;;;;;15.05;8.20;;;2.40;99.90;;;;;;5005900;28;20029;-68
2022/12/10 00:43:43;;;;;;;11.43;6.93;;;2.30;99.90;;;;;;4999641;28;20034;-68
2022/12/10 00:46:10;;;;;;;14.25;8.25;;;2.40;99.90;;;;;;5001213;28;20026;-68
2022/12/10 00:48:36;;;;;;;12.90;7.43;;;2.60;99.90;;;;;;4994815;28;20038;-68
2022/12/10 00:51:06;;;;;;;9.43;6.50;;;2.70;99.90;;;;;;4998286;28;20027;-68
2022/12/10 00:53:33;;;;;;;13.27;7.20;;;2.60;99.90;;;;;;4994846;28;20038;-68
2022/12/10 00:55:59;;;;;;;13.50;7.07;;;2.70;99.90;;;;;;4994925;28;20096;-68
2022/12/10 00:58:30;;;;;;;11.40;7.53;;;2.70;99.90;;;;;;5007009;28;20428;-68
2022/12/10 01:01:18;;;;;;;14.35;8.68;;;2.60;99.90;;;;;;4996757;28;20080;-68
2022/12/10 01:03:45;;;;;;;11.88;7.47;;;2.40;99.90;;;;;;4985096;28;20065;-68
2022/12/10 01:06:24;;;;;;;9.07;6.80;;;2.30;99.90;;;;;;4994800;28;20033;-68
2022/12/10 01:08:53;;;;;;;12.13;7.50;;;2.40;99.90;;;;;;5005775;28;20112;-68
2022/12/10 01:11:20;;;;;;;10.48;7.30;;;2.30;99.90;;;;;;5005381;28;20088;-68
2022/12/10 01:13:47;;;;;;;8.65;6.55;;;2.20;99.90;;;;;;4992482;28;20038;-68
2022/12/10 01:16:17;;;;;;;10.13;7.05;;;2.30;99.90;;;;;;5001838;28;20033;-68
2022/12/10 01:18:43;;;;;;;13.02;7.80;;;2.20;99.90;;;;;;5000162;28;20036;-68
2022/12/10 01:21:15;;;;;;;12.60;7.60;;;2.20;99.90;;;;;;4997474;28;20501;-68
2022/12/10 01:23:43;;;;;;;12.43;7.32;;;2.20;99.90;;;;;;5003675;28;20073;-68
2022/12/10 01:26:20;;;;;;;11.30;7.65;;;2.30;99.90;;;;;;4989419;28;20045;-68
2022/12/10 01:28:46;;;;;;;8.93;5.72;;;2.10;99.90;;;;;;4993945;28;20049;-68
2022/12/10 01:31:17;;;;;;;10.57;6.53;;;2.20;99.90;;;;;;5001924;28;20052;-68
2022/12/10 01:33:44;;;;;;;10.48;6.45;;;2.40;99.90;;;;;;4993760;28;20092;-68
2022/12/10 01:36:15;;;;;;;9.35;6.50;;;2.40;99.90;;;;;;4990141;28;20054;-68
2022/12/10 01:38:42;;;;;;;8.75;5.93;;;2.40;99.90;;;;;;4990235;28;20037;-68
2022/12/10 01:41:13;;;;;;;11.15;7.03;;;2.30;99.90;;;;;;4993998;28;20392;-68
2022/12/10 01:44:00;;;;;;;12.45;8.02;;;2.30;99.90;;;;;;5003693;28;20026;-68
2022/12/10 01:46:31;;;;;;;9.38;6.55;;;2.30;99.90;;;;;;4991625;28;20384;-68
2022/12/10 01:48:58;;;;;;;8.95;5.70;;;2.40;99.90;;;;;;4989478;28;20042;-68
2022/12/10 01:51:27;;;;;;;9.38;6.38;;;2.40;99.90;;;;;;4991038;28;20030;-68
2022/12/10 01:53:53;;;;;;;12.30;7.47;;;2.30;99.90;;;;;;4998671;28;20046;-68
2022/12/10 01:56:20;;;;;;;10.80;7.03;;;2.30;99.90;;;;;;4999097;28;20030;-68
2022/12/10 01:58:49;;;;;;;11.88;8.00;;;2.30;99.90;;;;;;4996907;28;20038;-68
2022/12/10 02:01:26;;;;;;;11.52;7.75;;;2.50;99.90;;;;;;5001048;28;20061;-68
2022/12/10 02:03:52;;;;;;;10.32;6.65;;;2.60;99.90;;;;;;4998169;28;20127;-68
2022/12/10 02:06:38;;;;;;;10.27;7.35;;;2.40;99.90;;;;;;5003565;28;20026;-68
2022/12/10 02:09:10;;;;;;;9.20;6.15;;;2.40;99.90;;;;;;4984904;28;20066;-68
2022/12/10 02:11:52;;;;;;;10.13;6.95;;;2.20;99.90;;;;;;4996655;28;20133;-68
2022/12/10 02:14:29;;;;;;;10.20;6.40;;;2.20;99.90;;;;;;4988885;28;20034;-68
2022/12/10 02:17:16;;;;;;;9.75;6.50;;;2.20;99.90;;;;;;4990354;28;20027;-68
2022/12/10 02:20:01;;;;;;;10.30;6.70;;;2.20;99.90;;;;;;4997186;28;20057;-68
2022/12/10 02:22:31;;;;;;;10.40;6.60;;;2.20;99.90;;;;;;4988238;28;20049;-68
2022/12/10 02:24:58;;;;;;;10.85;6.57;;;2.40;99.90;;;;;;4989477;28;20368;-68
2022/12/10 02:27:52;;;;;;;10.55;6.25;;;2.30;99.90;;;;;;5002506;28;20029;-68
2022/12/10 02:30:18;;;;;;;9.43;5.97;;;2.40;99.90;;;;;;4995727;28;20218;-68
2022/12/10 02:32:48;;;;;;;9.70;6.15;;;2.40;99.90;;;;;;5008029;28;20072;-68
2022/12/10 02:35:23;;;;;;;9.60;5.70;;;2.20;99.90;;;;;;4997446;28;20042;-68
2022/12/10 02:37:52;;;;;;;10.75;5.90;;;2.20;99.90;;;;;;4997706;28;20038;-68
2022/12/10 02:40:29;;;;;;;13.07;8.13;;;2.10;99.90;;;;;;4998499;28;20038;-68
2022/12/10 02:42:55;;;;;;;12.02;8.18;;;2.30;99.90;;;;;;5001562;28;20388;-68
2022/12/10 02:45:25;;;;;;;13.57;8.60;;;2.30;99.90;;;;;;5004710;28;20034;-68
2022/12/10 02:47:53;;;;;;;14.60;8.35;;;2.50;99.90;;;;;;5010096;28;20053;-68
2022/12/10 02:50:21;;;;;;;9.82;6.03;;;2.40;99.90;;;;;;5005975;28;20350;-68
2022/12/10 02:52:46;;;;;;;9.88;5.90;;;2.40;99.90;;;;;;4999136;28;20034;-68
2022/12/10 02:55:13;;;;;;;10.63;6.85;;;2.30;99.90;;;;;;5008671;28;20045;-68
2022/12/10 02:58:21;;;;;;;10.70;6.70;;;2.30;99.90;;;;;;5004135;28;20481;-68
2022/12/10 03:01:04;;;;;;;10.57;6.55;;;2.40;99.90;;;;;;5003820;28;20030;-68
2022/12/10 03:03:44;;;;;;;10.27;6.85;;;2.40;99.90;;;;;;5000407;28;20068;-68
2022/12/10 03:06:27;;;;;;;11.77;8.25;;;2.50;99.90;;;;;;4999269;28;20037;-68
2022/12/10 03:09:05;;;;;;;10.18;6.38;;;2.60;99.90;;;;;;5006505;28;20022;-68
2022/12/10 03:11:31;;;;;;;10.57;6.13;;;2.50;99.90;;;;;;4994487;28;20489;-68
2022/12/10 03:14:00;;;;;;;11.30;7.55;;;2.40;99.90;;;;;;5008753;28;20073;-68
2022/12/10 03:16:30;;;;;;;9.18;6.32;;;2.30;99.90;;;;;;4994340;28;20540;-68
2022/12/10 03:19:01;;;;;;;10.13;6.32;;;2.40;99.90;;;;;;5003227;28;20066;-68
2022/12/10 03:21:29;;;;;;;10.07;6.68;;;2.40;99.90;;;;;;5002234;28;20362;-68
2022/12/10 03:23:54;;;;;;;10.40;6.47;;;2.40;99.90;;;;;;4996516;28;20370;-68
2022/12/10 03:26:22;;;;;;;9.80;6.20;;;2.40;99.90;;;;;;5001474;28;20077;-68
2022/12/10 03:29:00;;;;;;;8.80;6.35;;;2.40;99.90;;;;;;4998387;28;20030;-68
2022/12/10 03:31:27;;;;;;;13.05;8.02;;;2.40;99.90;;;;;;4995575;28;20560;-68
2022/12/10 03:33:54;;;;;;;14.43;8.20;;;2.30;99.90;;;;;;5005333;28;20117;-68
2022/12/10 03:36:21;;;;;;;14.55;8.57;;;2.30;99.90;;;;;;5002617;28;20425;-68
2022/12/10 03:38:47;;;;;;;12.45;8.10;;;2.40;99.90;;;;;;5006191;28;20413;-68
2022/12/10 03:41:13;;;;;;;12.65;7.80;;;2.50;99.90;;;;;;5001440;28;20551;-68
2022/12/10 03:43:56;;;;;;;13.52;8.20;;;2.70;99.90;;;;;;4997155;28;20041;-68
2022/12/10 03:46:23;;;;;;;12.20;6.60;;;2.70;99.90;;;;;;4992244;28;20034;-68
2022/12/10 03:48:49;;;;;;;11.63;7.18;;;2.70;99.90;;;;;;5004275;28;20033;-68
2022/12/10 03:51:15;;;;;;;9.55;6.57;;;2.70;99.90;;;;;;5000847;28;20041;-68
2022/12/10 03:53:41;;;;;;;10.55;7.07;;;2.80;99.90;;;;;;4992431;28;20046;-68
2022/12/10 03:56:06;;;;;;;9.82;7.32;;;2.80;99.90;;;;;;4998060;28;20094;-69
2022/12/10 03:58:32;;;;;;;9.18;6.07;;;2.70;99.90;;;;;;4994808;28;20444;-70
2022/12/10 04:00:58;;;;;;;12.25;5.75;;;2.60;99.90;;;;;;4999572;28;20519;-69
2022/12/10 04:03:24;;;;;;;9.52;5.95;;;2.50;99.90;;;;;;4994614;28;20036;-67
2022/12/10 04:05:49;;;;;;;9.27;6.18;;;2.40;99.90;;;;;;4990071;28;20022;-69
2022/12/10 04:08:15;;;;;;;10.13;6.22;;;2.40;99.90;;;;;;4987370;28;20692;-69
2022/12/10 04:10:41;;;;;;;10.15;7.30;;;2.30;99.90;;;;;;4987251;28;20038;-69
2022/12/10 04:18:35;;;;;;;14.00;8.30;;;2.40;99.90;;;;;;4990794;28;20092;-70
2022/12/10 04:29:12;;;;;;;12.83;8.53;;;2.20;99.90;;;;;;4998258;28;20041;-69
2022/12/10 04:31:38;;;;;;;11.90;7.88;;;2.20;99.90;;;;;;4991545;28;20479;-69
2022/12/10 04:34:04;;;;;;;9.75;6.82;;;2.20;99.90;;;;;;4994896;28;20107;-70
2022/12/10 04:36:30;;;;;;;9.98;6.25;;;2.50;99.90;;;;;;4988164;28;20093;-70
2022/12/10 04:38:55;;;;;;;9.45;6.68;;;2.40;99.90;;;;;;4987807;28;20551;-69
2022/12/10 04:41:21;;;;;;;8.93;6.13;;;2.40;99.90;;;;;;4998520;28;20030;-70
2022/12/10 04:43:46;;;;;;;13.20;7.70;;;2.40;99.90;;;;;;5001103;28;20025;-67
2022/12/10 04:46:12;;;;;;;9.98;6.38;;;2.40;99.90;;;;;;5000473;28;20025;-70
2022/12/10 04:48:38;;;;;;;10.25;6.10;;;2.50;99.90;;;;;;4990092;28;20034;-70
2022/12/10 04:51:04;;;;;;;12.60;6.63;;;2.80;99.90;;;;;;4994264;28;20034;-70
2022/12/10 04:53:30;;;;;;;8.25;4.90;;;2.80;99.90;;;;;;4995908;28;20044;-70
2022/12/10 04:55:55;;;;;;;8.93;5.57;;;2.80;99.90;;;;;;5004852;28;20025;-70
2022/12/10 04:58:21;;;;;;;10.90;6.25;;;2.90;99.90;;;;;;4998117;28;20026;-70
2022/12/10 05:00:47;;;;;;;9.43;6.35;;;2.90;99.90;;;;;;4990642;28;20026;-70
2022/12/10 05:03:13;;;;;;;10.25;5.93;;;3.00;99.90;;;;;;4987117;28;20084;-69
2022/12/10 05:05:38;;;;;;;9.60;5.88;;;2.90;99.90;;;;;;4995389;28;20030;-70
2022/12/10 05:08:04;;;;;;;8.70;5.30;;;3.00;99.90;;;;;;5000764;28;20176;-70
2022/12/10 05:10:30;;;;;;;9.90;6.32;;;3.10;99.90;;;;;;4989450;28;20052;-69
2022/12/10 05:12:56;;;;;;;8.45;5.25;;;3.10;99.90;;;;;;4994254;28;20038;-69
2022/12/10 05:15:21;;;;;;;9.65;6.53;;;3.20;99.90;;;;;;4989112;28;20481;-70
2022/12/10 05:17:47;;;;;;;9.20;5.53;;;3.00;99.90;;;;;;4989257;28;20113;-70
2022/12/10 05:20:13;;;;;;;6.47;4.13;;;2.80;99.90;;;;;;4995060;28;20033;-70
2022/12/10 05:25:23;;;;;;;13.82;9.93;;;2.80;99.90;;;;;;4986118;28;20069;-70
2022/12/10 05:27:48;;;;;;;14.40;9.05;;;2.30;99.90;;;;;;4999628;28;20189;-70
2022/12/10 05:30:14;;;;;;;11.52;7.70;;;2.40;99.90;;;;;;4996484;28;20448;-70
2022/12/10 05:32:39;;;;;;;13.25;7.75;;;2.50;99.90;;;;;;4987653;28;20104;-69
2022/12/10 05:35:05;;;;;;;13.48;9.00;;;2.40;99.90;;;;;;5017923;28;20425;-70
2022/12/10 05:37:31;;;;;;;8.63;5.90;;;2.40;99.90;;;;;;4991797;28;20038;-70
2022/12/10 05:39:57;;;;;;;8.23;5.10;;;2.50;99.90;;;;;;4986351;28;20543;-70
2022/12/10 05:42:22;;;;;;;9.25;5.72;;;2.60;99.90;;;;;;4983614;28;20113;-69
2022/12/10 05:44:48;;;;;;;13.13;7.25;;;2.70;99.90;;;;;;4988483;28;20022;-70
2022/12/10 05:47:14;;;;;;;9.65;5.93;;;2.80;99.90;;;;;;4986967;28;20108;-70
2022/12/10 05:49:39;;;;;;;8.02;5.63;;;2.90;99.90;;;;;;4985288;28;20337;-70
2022/12/10 05:52:05;;;;;;;9.55;5.63;;;2.80;99.90;;;;;;4993942;28;20061;-70
2022/12/10 05:54:31;;;;;;;9.00;5.78;;;2.80;99.90;;;;;;4989761;28;20052;-70
2022/12/10 05:56:56;;;;;;;9.20;5.82;;;2.90;99.90;;;;;;4984867;28;20477;-69
2022/12/10 05:59:22;;;;;;;14.77;8.90;;;2.90;99.90;;;;;;4989578;28;20026;-70
2022/12/10 06:01:47;;;;;;;14.20;10.07;;;2.80;99.90;;;;;;4994323;28;20049;-68
2022/12/10 06:04:13;;;;;;;10.70;6.85;;;2.70;99.90;;;;;;4989055;28;20030;-69
2022/12/10 06:06:39;;;;;;;10.20;6.57;;;2.40;99.90;;;;;;4990139;28;20030;-70
2022/12/10 06:09:07;;;;;;;11.40;6.80;;;2.60;99.90;;;;;;4990364;28;20029;-70
2022/12/10 06:11:33;;;;;;;10.00;5.50;;;2.80;99.90;;;;;;4982759;28;20117;-70
2022/12/10 06:13:59;;;;;;;7.25;4.60;;;2.80;99.90;;;;;;4981161;28;20152;-70
2022/12/10 06:16:26;;;;;;;7.47;4.93;;;2.90;99.90;;;;;;4989505;28;20033;-69
2022/12/10 06:18:52;;;;;;;6.97;4.18;;;2.90;99.90;;;;;;4989809;28;20046;-70
2022/12/10 06:21:19;;;;;;;8.85;4.82;;;2.90;99.90;;;;;;4989701;28;20041;-69
2022/12/10 06:23:46;;;;;;;11.45;6.72;;;2.90;99.90;;;;;;4996919;28;20185;-69
2022/12/10 06:26:15;;;;;;;7.35;5.20;;;3.00;99.90;;;;;;4987402;28;20112;-69
2022/12/10 06:28:40;;;;;;;6.75;4.10;;;2.80;99.90;;;;;;4986254;28;20034;-69
2022/12/10 06:31:07;;;;;;;6.05;4.13;;;2.70;99.90;;;;;;4990810;28;20083;-69
2022/12/10 06:33:32;;;;;;;6.47;3.75;;;2.60;99.90;;;;;;4983386;28;20042;-69
2022/12/10 06:35:58;;;;;;;12.82;7.47;;;2.60;99.90;;;;;;4990014;28;20038;-69
2022/12/10 06:38:24;;;;;;;11.68;7.15;;;2.60;99.90;;;;;;4984049;28;20481;-70
2022/12/10 06:40:49;;;;;;;20.75;10.25;;;2.60;99.90;;;;;;4994510;28;20104;-67
2022/12/10 06:43:15;;;;;;;12.30;7.68;;;2.40;99.90;;;;;;4985539;28;20436;-70
2022/12/10 06:45:42;;;;;;;8.63;5.60;;;2.30;99.90;;;;;;4991635;28;20034;-70
2022/12/10 06:48:08;;;;;;;8.98;5.25;;;2.30;99.90;;;;;;4994281;28;20176;-70
2022/12/10 06:50:35;;;;;;;7.30;4.40;;;2.30;99.90;;;;;;4988310;28;20026;-69
2022/12/10 06:53:01;;;;;;;9.07;4.50;;;2.40;99.90;;;;;;4982434;28;20030;-70
2022/12/10 06:55:27;;;;;;;8.57;4.90;;;2.40;99.90;;;;;;5000537;28;20026;-70
2022/12/10 06:57:53;;;;;;;8.45;4.90;;;2.60;99.90;;;;;;4986003;28;20026;-70
2022/12/10 07:00:20;;;;;;;11.68;6.07;;;2.60;99.90;;;;;;4990828;28;20105;-70
2022/12/10 07:02:46;;;;;;;7.60;4.93;;;2.60;99.90;;;;;;4985956;28;20073;-70
2022/12/10 07:05:12;;;;;;;11.15;6.97;;;2.70;99.90;;;;;;4992136;28;20038;-70
2022/12/10 07:07:37;;;;;;;12.05;6.80;;;2.80;99.90;;;;;;4994967;28;20033;-69
2022/12/10 07:10:04;;;;;;;8.93;5.28;;;2.80;99.90;;;;;;4997869;28;20022;-70
2022/12/10 07:12:29;;;;;;;10.25;6.38;;;2.80;99.90;;;;;;4988118;28;20065;-70
2022/12/10 07:14:55;;;;;;;7.47;4.55;;;3.00;99.90;;;;;;4991902;28;20088;-69
2022/12/10 07:17:21;;;;;;;7.03;4.53;;;2.80;99.90;;;;;;5000558;28;20026;-70
2022/12/10 07:19:46;;;;;;;7.82;4.53;;;2.80;99.90;;;;;;4990880;28;20030;-70
2022/12/10 07:22:12;;;;;;;7.60;4.97;;;2.80;99.90;;;;;;4995722;28;20030;-70
2022/12/10 07:24:38;;;;;;;6.82;4.72;;;2.80;99.90;;;;;;4988678;28;20150;-70
2022/12/10 07:27:07;;;;;;;10.52;6.10;;;2.80;99.90;;;;;;4992315;28;20078;-70
2022/12/10 07:29:33;;;;;;;11.68;6.70;;;3.00;99.90;;;;;;4999376;28;20496;-70
2022/12/10 07:31:59;;;;;;;11.43;7.22;;;3.00;99.90;;;;;;4991140;28;20022;-70
2022/12/10 07:34:25;;;;;;;12.00;7.55;;;2.80;99.90;;;;;;4987836;28;20046;-70
2022/12/10 07:36:50;;;;;;;9.38;5.65;;;2.80;99.90;;;;;;4988883;28;20030;-70
2022/12/10 07:39:17;;;;;;;9.50;6.15;;;2.70;99.90;;;;;;4991728;28;20033;-70
2022/12/10 07:41:51;;;;;;;12.20;6.10;;;3.00;99.90;;;;;;4995605;28;20060;-70
2022/12/10 07:44:19;;;;;;;8.68;5.65;;;3.10;99.90;;;;;;4995891;28;20038;-70
2022/12/10 07:46:44;;;;;;;9.45;6.07;;;3.10;99.90;;;;;;5002835;28;20034;-70
2022/12/10 07:49:10;;;;;;;8.27;5.70;;;3.20;99.90;;;;;;4999834;28;20053;-68
2022/12/10 07:51:36;;;;;;;11.43;6.50;;;3.20;99.90;;;;;;4991476;28;20346;-68
2022/12/10 07:54:02;;;;;;;9.85;7.00;;;3.10;99.90;;;;;;4998917;28;20052;-68
2022/12/10 07:56:27;;;;;;;11.45;7.70;;;3.10;99.90;;;;;;4991211;28;20382;-68
2022/12/10 07:58:53;;;;;;;12.18;8.13;;;3.20;99.90;;;;;;4992519;28;20022;-68
2022/12/10 08:01:25;;;;;;;21.67;12.65;;;2.90;99.90;;;;;;4992207;28;20034;-69
2022/12/10 08:03:52;;;;;;;13.82;9.38;;;2.90;99.90;;;;;;4988045;28;20124;-68
2022/12/10 08:06:19;;;;;;;9.95;6.13;;;2.90;99.90;;;;;;4989516;28;20617;-68
2022/12/10 08:08:46;;;;;;;9.38;5.85;;;2.90;99.90;;;;;;4997451;28;20041;-68
2022/12/10 08:11:14;;;;;;;11.18;7.78;;;3.00;99.90;;;;;;5001415;28;20044;-68
2022/12/10 08:13:39;;;;;;;13.13;8.35;;;3.00;99.90;;;;;;4987723;28;20117;-68
2022/12/10 08:16:13;;;;;;;13.88;8.18;;;3.00;99.90;;;;;;4992091;28;20110;-69
2022/12/10 08:18:39;;;;;;;12.63;7.93;;;3.10;99.90;;;;;;4996635;28;20500;-69
2022/12/10 08:21:13;;;;;;;10.10;7.10;;;3.20;99.90;;;;;;4993451;28;20052;-69
2022/12/10 08:23:40;;;;;;;16.50;7.88;;;3.20;99.90;;;;;;4996085;28;20104;-69
2022/12/10 08:26:09;;;;;;;11.85;8.73;;;3.10;99.90;;;;;;4991001;28;20030;-69
2022/12/10 08:28:35;;;;;;;14.95;8.25;;;3.10;99.90;;;;;;4988326;28;20045;-69
2022/12/10 08:31:02;;;;;;;9.60;6.35;;;3.20;99.90;;;;;;4995591;28;20042;-69
2022/12/10 08:33:27;;;;;;;15.88;9.55;;;3.30;99.90;;;;;;4992409;28;20026;-69
2022/12/10 08:35:59;;;;;;;15.50;10.40;;;3.30;99.90;;;;;;4984799;28;20026;-69
2022/12/10 08:38:24;;;;;;;17.08;11.75;;;2.90;99.90;;;;;;4986939;28;20037;-69
2022/12/10 08:40:50;;;;;;;16.13;10.40;;;2.90;99.90;;;;;;4988686;28;20030;-69
2022/12/10 08:43:16;;;;;;;18.38;11.00;;;2.80;99.90;;;;;;4990055;28;20132;-69
2022/12/10 08:45:42;;;;;;;12.88;8.43;;;2.80;99.90;;;;;;4990141;28;20560;-69
2022/12/10 08:48:07;;;;;;;12.60;8.35;;;3.00;99.90;;;;;;4992253;28;20066;-69
2022/12/10 08:50:33;;;;;;;15.80;9.63;;;3.20;99.90;;;;;;4994862;28;20130;-69
2022/12/10 08:52:59;;;;;;;18.95;11.00;;;3.20;99.90;;;;;;4989651;28;20805;-69
2022/12/10 08:55:25;;;;;;;15.50;9.68;;;3.10;99.90;;;;;;4991502;28;20038;-69
2022/12/10 08:57:51;;;;;;;11.82;7.22;;;3.00;99.90;;;;;;4992540;28;20500;-69
2022/12/10 09:00:18;;;;;;;17.80;9.05;;;3.20;99.90;;;;;;4990121;28;20490;-69
2022/12/10 09:02:44;;;;;;;13.57;8.10;;;3.30;99.90;;;;;;4995372;28;20072;-69
2022/12/10 09:05:10;;;;;;;11.20;7.75;;;3.40;99.90;;;;;;4993863;28;20428;-69
2022/12/10 09:07:35;;;;;;;13.00;8.65;;;3.50;99.90;;;;;;4994095;28;20034;-69
2022/12/10 09:10:01;;;;;;;13.80;8.82;;;3.40;99.90;;;;;;4995993;28;20061;-69
2022/12/10 09:12:27;;;;;;;11.80;8.55;;;3.40;99.90;;;;;;4992358;28;20042;-69
2022/12/10 09:14:52;;;;;;;11.63;8.45;;;3.30;99.90;;;;;;4993573;28;20093;-69
2022/12/10 09:17:18;;;;;;;17.83;12.52;;;3.30;99.90;;;;;;4996073;28;20112;-69
2022/12/10 09:19:44;;;;;;;20.52;13.45;;;3.20;99.90;;;;;;4991368;28;20026;-69
2022/12/10 09:22:09;;;;;;;19.30;13.98;;;3.20;99.90;;;;;;4989476;28;20477;-69
2022/12/10 09:24:35;;;;;;;18.70;12.43;;;3.10;99.90;;;;;;4990632;28;20057;-69
2022/12/10 09:27:02;;;;;;;17.33;12.68;;;3.20;99.90;;;;;;4983371;28;20026;-69
2022/12/10 09:29:37;;;;;;;17.27;11.95;;;3.20;99.90;;;;;;4986488;28;20034;-69
2022/12/10 09:32:02;;;;;;;;;;;3.20;99.90;;;;;;4996057;28;20026;-69
2022/12/10 09:34:28;;;;;;;14.52;9.52;;;3.30;99.90;;;;;;4989355;28;20059;-69
2022/12/10 09:36:54;;;;;;;18.73;13.05;;;3.40;99.90;;;;;;4987116;28;20058;-69
2022/12/10 09:39:19;;;;;;;21.38;13.10;;;3.40;99.90;;;;;;4989556;28;20107;-69
2022/12/10 09:41:58;;;;;;;20.25;13.02;;;3.30;99.90;;;;;;4988892;28;20026;-69
2022/12/10 09:44:53;;;;;;;21.10;14.10;;;3.20;99.90;;;;;;4994561;28;20037;-69
2022/12/10 09:47:21;;;;;;;19.42;13.75;;;3.30;99.90;;;;;;4996745;28;20029;-69
2022/12/10 09:49:58;;;;;;;19.63;13.27;;;3.30;99.90;;;;;;4995055;28;20097;-69
2022/12/10 09:52:29;;;;;;;22.02;13.75;;;3.50;99.90;;;;;;5000341;28;20097;-69
2022/12/10 09:54:59;;;;;;;19.60;12.50;;;3.50;99.90;;;;;;5033023;28;21236;-69
2022/12/10 09:57:30;;;;;;;33.83;18.02;;;3.50;99.90;;;;;;5002858;28;20049;-69
2022/12/10 10:00:07;;;;;;;39.42;22.85;;;3.50;99.90;;;;;;5003640;28;20539;-69
2022/12/10 10:02:33;;;;;;;30.40;20.35;;;3.50;99.90;;;;;;5002801;28;20484;-69
2022/12/10 10:05:07;;;;;;;45.38;25.17;;;3.50;99.90;;;;;;5002731;28;20103;-69
2022/12/10 10:07:34;;;;;;;;;;;3.70;99.90;;;;;;5003108;28;20034;-69
2022/12/10 10:10:04;;;;;;;25.60;15.82;;;3.60;99.90;;;;;;5003031;28;20017;-69
2022/12/10 10:12:31;;;;;;;15.90;11.05;;;3.70;99.90;;;;;;5004528;28;20061;-69
2022/12/10 10:14:58;;;;;;;23.60;13.10;;;3.60;99.90;;;;;;5003435;28;20030;-69
2022/12/10 10:17:33;;;;;;;16.50;11.80;;;3.60;99.90;;;;;;5002409;28;20053;-69
2022/12/10 10:19:59;;;;;;;19.08;12.98;;;3.70;99.90;;;;;;5002542;28;20080;-69
2022/12/10 10:22:26;;;;;;;18.73;13.18;;;3.70;99.90;;;;;;5002427;28;20030;-69
2022/12/10 10:24:52;;;;;;;22.00;12.70;;;3.70;99.90;;;;;;5001859;28;20073;-69
2022/12/10 10:27:23;;;;;;;17.80;12.13;;;3.60;99.90;;;;;;4999809;28;20398;-69
2022/12/10 10:29:51;;;;;;;22.10;14.30;;;3.60;99.90;;;;;;4991139;28;20673;-69
2022/12/10 10:32:28;;;;;;;21.05;12.68;;;3.60;99.90;;;;;;5002546;28;20112;-69
2022/12/10 10:34:57;;;;;;;19.65;13.27;;;3.70;99.90;;;;;;5003402;28;20489;-69
2022/12/10 10:37:29;;;;;;;21.33;13.65;;;3.70;99.90;;;;;;5004419;28;20268;-69
2022/12/10 10:39:55;;;;;;;19.35;13.20;;;3.60;99.90;;;;;;5003476;28;20038;-69
2022/12/10 10:42:33;;;;;;;14.68;9.85;;;3.70;99.90;;;;;;4998105;28;20042;-69
2022/12/10 10:44:59;;;;;;;11.45;6.63;;;3.70;99.90;;;;;;4992120;28;20030;-69
2022/12/10 10:47:28;;;;;;;19.02;12.90;;;4.00;99.90;;;;;;5005134;28;20029;-69
2022/12/10 10:49:53;;;;;;;18.00;11.98;;;4.00;99.90;;;;;;4998837;28;20029;-69
2022/12/10 10:52:19;;;;;;;24.85;14.43;;;3.90;99.90;;;;;;4996834;28;20031;-69
2022/12/10 10:54:46;;;;;;;19.90;12.27;;;3.90;99.90;;;;;;4998384;28;20145;-69
2022/12/10 10:57:33;;;;;;;18.30;13.32;;;3.90;99.90;;;;;;4993956;28;20034;-69
2022/12/10 11:00:23;;;;;;;19.52;12.75;;;3.90;99.90;;;;;;4998716;28;20127;-69
2022/12/10 11:02:50;;;;;;;16.35;10.85;;;3.90;99.90;;;;;;4997823;28;20065;-69
2022/12/10 11:05:18;;;;;;;20.55;13.65;;;4.00;99.90;;;;;;4992959;28;20030;-69
2022/12/10 11:07:43;;;;;;;27.25;17.92;;;4.10;99.90;;;;;;4989285;28;20030;-70
2022/12/10 11:10:21;;;;;;;24.58;14.00;;;4.20;99.90;;;;;;4989743;28;20032;-69
2022/12/10 11:13:04;;;;;;;27.63;16.88;;;4.30;99.90;;;;;;4991673;28;20034;-69
2022/12/10 11:15:41;;;;;;;22.13;13.95;;;4.30;99.90;;;;;;4990980;28;20046;-69
2022/12/10 11:18:53;;;;;;;18.42;12.95;;;4.30;99.90;;;;;;4992342;28;20614;-69
2022/12/10 11:21:23;;;;;;;17.00;11.18;;;4.20;99.90;;;;;;4953442;28;20035;-69
2022/12/10 11:23:53;;;;;;;17.42;10.52;;;4.10;99.90;;;;;;4952645;28;20050;-68
2022/12/10 11:26:22;;;;;;;16.70;10.98;;;4.00;99.90;;;;;;4976114;28;20088;-69
2022/12/10 11:28:52;;;;;;;22.63;14.20;;;4.00;99.90;;;;;;4993514;28;20032;-69
2022/12/10 11:31:18;;;;;;;17.35;11.70;;;4.10;99.90;;;;;;4991661;28;20401;-69
2022/12/10 11:34:16;;;;;;;20.13;13.45;;;4.10;99.90;;;;;;4989069;28;20042;-69
2022/12/10 11:37:09;;;;;;;17.80;11.65;;;4.10;99.90;;;;;;4992838;28;20129;-69
2022/12/10 11:40:06;;;;;;;18.95;11.75;;;4.10;99.90;;;;;;4994057;28;20026;-69
2022/12/10 11:42:50;;;;;;;15.70;10.30;;;3.90;99.90;;;;;;4993087;28;20493;-69
2022/12/10 11:46:01;;;;;;;17.77;11.23;;;3.90;99.90;;;;;;4994251;28;20029;-69
2022/12/10 11:48:33;;;;;;;14.23;10.43;;;4.00;99.90;;;;;;4992274;28;20046;-69
2022/12/10 11:51:05;;;;;;;16.77;12.00;;;4.00;99.90;;;;;;4995054;28;20116;-69
2022/12/10 11:53:45;;;;;;;19.20;13.32;;;4.00;99.90;;;;;;4997699;28;20040;-69
2022/12/10 11:56:14;;;;;;;15.85;11.52;;;4.10;99.90;;;;;;4990831;28;20027;-68
2022/12/10 11:58:57;;;;;;;19.05;12.77;;;3.90;99.90;;;;;;4987244;28;20026;-69
2022/12/10 12:01:40;;;;;;;18.00;12.13;;;4.20;99.90;;;;;;4999975;28;20057;-69
2022/12/10 12:04:15;;;;;;;20.77;11.88;;;5.30;99.90;;;;;;4985779;28;20026;-69
2022/12/10 12:06:44;;;;;;;17.70;11.10;;;4.60;99.90;;;;;;4994704;28;20030;-72
2022/12/10 12:09:18;;;;;;;21.00;12.07;;;4.10;99.90;;;;;;5003003;28;20100;-69
2022/12/10 12:12:20;;;;;;;21.70;13.05;;;4.10;99.90;;;;;;4993746;28;20060;-69
2022/12/10 12:14:55;;;;;;;13.93;9.68;;;4.00;99.90;;;;;;4992920;28;20033;-69
2022/12/10 12:17:40;;;;;;;8.38;5.78;;;4.20;99.90;;;;;;4997466;28;20034;-69
2022/12/10 12:20:23;;;;;;;10.82;6.85;;;4.40;99.90;;;;;;4999482;28;20092;-69
2022/12/10 12:23:00;;;;;;;14.00;10.13;;;4.60;99.90;;;;;;4999177;28;20515;-69
2022/12/10 12:25:54;;;;;;;15.95;10.00;;;4.40;99.90;;;;;;4997800;28;20121;-69
2022/12/10 12:28:32;;;;;;;17.25;11.27;;;4.30;99.90;;;;;;4994289;28;20112;-69
2022/12/10 12:31:04;;;;;;;21.70;14.93;;;4.30;99.90;;;;;;4998111;28;20050;-69
2022/12/10 12:33:40;;;;;;;19.35;13.02;;;4.30;99.90;;;;;;4998164;28;20046;-69
2022/12/10 12:36:17;;;;;;;17.27;10.30;;;4.40;99.90;;;;;;5001459;28;20029;-69
2022/12/10 12:39:36;;;;;;;16.27;10.88;;;4.30;99.90;;;;;;4993290;28;20541;-69
2022/12/10 12:42:01;;;;;;;21.00;11.60;;;4.20;99.90;;;;;;4939757;28;20494;-69
2022/12/10 12:44:53;;;;;;;15.57;11.50;;;4.20;99.90;;;;;;4984264;28;20042;-69
2022/12/10 12:47:19;;;;;;;23.67;14.10;;;4.30;99.90;;;;;;4997574;28;20034;-70
2022/12/10 12:49:45;;;;;;;15.18;11.13;;;4.40;99.90;;;;;;5004994;28;20029;-70
2022/12/10 12:52:29;;;;;;;16.98;11.77;;;4.30;99.90;;;;;;5003529;28;20041;-69
2022/12/10 12:55:00;;;;;;;14.60;10.65;;;4.20;99.90;;;;;;5002012;28;20042;-69
2022/12/10 12:57:38;;;;;;;19.88;13.68;;;4.30;99.90;;;;;;5001758;28;20026;-69
2022/12/10 13:00:11;;;;;;;33.33;18.75;;;4.30;99.90;;;;;;4998909;28;20040;-71
2022/12/10 13:02:52;;;;;;;17.60;11.60;;;4.30;99.90;;;;;;4998989;28;20037;-70
2022/12/10 13:05:34;;;;;;;17.98;12.93;;;4.30;99.90;;;;;;5007870;28;20091;-70
2022/12/10 13:08:18;;;;;;;17.75;11.93;;;4.30;99.90;;;;;;5007592;28;20034;-69
2022/12/10 13:10:51;;;;;;;16.77;11.20;;;4.30;99.90;;;;;;5004495;28;20192;-69
2022/12/10 13:13:24;;;;;;;18.30;11.32;;;4.30;99.90;;;;;;5004194;28;20025;-69
2022/12/10 13:15:50;;;;;;;17.40;11.70;;;4.30;99.90;;;;;;5008208;28;20029;-69
2022/12/10 13:18:18;;;;;;;34.72;17.80;;;4.30;99.90;;;;;;5006993;28;20554;-69
2022/12/10 13:21:32;;;;;;;15.63;10.82;;;4.40;99.90;;;;;;5002574;28;20124;-70